createdAt,value
2023-02-19T16:12:22.630Z,73.03
2023-02-19T16:14:54.949Z,73.60
2023-02-19T16:17:29.290Z,73.60
2023-02-19T16:20:03.301Z,74.03
2023-02-19T16:22:34.638Z,74.77
2023-02-19T16:25:07.379Z,73.85
2023-02-19T16:27:40.712Z,74.13
2023-02-19T16:30:10.829Z,73.39
2023-02-19T16:32:37.419Z,73.58
2023-02-19T16:35:04.516Z,73.40
2023-02-19T16:37:38.288Z,73.49
2023-02-19T16:40:26.646Z,73.09
2023-02-19T16:42:55.197Z,73.62
2023-02-19T16:45:21.799Z,73.31
2023-02-19T16:47:48.594Z,73.64
2023-02-19T16:50:17.911Z,73.14
2023-02-19T16:52:54.600Z,73.59
2023-02-19T16:55:22.193Z,72.79
2023-02-19T16:57:48.886Z,72.13
2023-02-19T17:00:23.848Z,71.79
2023-02-19T17:02:55.791Z,72.39
2023-02-19T17:05:23.668Z,72.24
2023-02-19T17:07:51.627Z,72.39
2023-02-19T17:10:25.793Z,72.16
2023-02-19T17:12:57.609Z,71.95
2023-02-19T17:15:24.181Z,72.24
2023-02-19T17:17:50.821Z,72.37
2023-02-19T17:20:17.650Z,72.56
2023-02-19T17:22:47.468Z,73.03
2023-02-19T17:25:16.862Z,72.95
2023-02-19T17:27:47.651Z,72.29
2023-02-19T17:30:24.074Z,72.50
2023-02-19T17:32:53.629Z,72.71
2023-02-19T17:35:23.325Z,73.15
2023-02-19T17:37:51.864Z,72.71
2023-02-19T17:40:33.246Z,72.40
2023-02-19T17:43:00.716Z,73.08
2023-02-19T17:45:27.821Z,73.08
2023-02-19T17:48:20.706Z,73.55
2023-02-19T17:50:49.281Z,73.20
2023-02-19T17:53:15.898Z,73.20
2023-02-19T17:55:42.509Z,72.93
2023-02-19T17:58:09.279Z,73.62
2023-02-19T18:00:36.665Z,73.36
2023-02-19T18:03:05.742Z,73.68
2023-02-19T18:05:32.296Z,73.27
2023-02-19T18:08:02.248Z,73.93
2023-02-19T18:10:30.518Z,74.38
2023-02-19T18:12:59.850Z,73.38
2023-02-19T18:15:29.328Z,73.32
2023-02-19T18:17:57.222Z,73.33
2023-02-19T18:20:27.154Z,72.75
2023-02-19T18:22:55.334Z,73.36
2023-02-19T18:25:25.650Z,73.48
2023-02-19T18:27:52.737Z,73.26
2023-02-19T18:30:22.789Z,73.42
2023-02-19T18:32:50.540Z,73.29
2023-02-19T18:35:19.150Z,74.17
2023-02-19T18:37:52.758Z,74.19
2023-02-19T18:40:26.036Z,74.02
2023-02-19T18:42:53.769Z,73.53
2023-02-19T18:45:20.476Z,73.94
2023-02-19T18:47:48.817Z,73.47
2023-02-19T18:50:17.181Z,74.09
2023-02-19T18:52:43.835Z,73.85
2023-02-19T18:55:11.473Z,73.58
2023-02-19T18:57:38.801Z,73.36
2023-02-19T19:00:06.955Z,73.83
2023-02-19T19:02:48.699Z,73.96
2023-02-19T19:05:30.396Z,74.03
2023-02-19T19:07:59.275Z,74.63
2023-02-19T19:10:26.768Z,74.31
2023-02-19T19:12:55.223Z,74.20
2023-02-19T19:15:22.897Z,74.35
2023-02-19T19:17:49.921Z,74.09
2023-02-19T19:20:25.631Z,74.49
2023-02-19T19:22:53.281Z,74.75
2023-02-19T19:25:21.767Z,74.18
2023-02-19T19:27:50.777Z,74.39
2023-02-19T19:30:20.025Z,74.40
2023-02-19T19:32:51.446Z,74.28
2023-02-19T19:35:19.834Z,74.49
2023-02-19T19:37:46.492Z,74.94
2023-02-19T19:40:13.560Z,74.71
2023-02-19T19:42:42.462Z,74.74
2023-02-19T19:45:11.799Z,74.00
2023-02-19T19:47:38.419Z,74.32
2023-02-19T19:50:05.441Z,74.78
2023-02-19T19:52:32.065Z,74.59
2023-02-19T19:54:58.718Z,74.45
2023-02-19T19:57:26.148Z,75.04
2023-02-19T19:59:52.765Z,74.83
2023-02-19T20:02:19.774Z,74.55
2023-02-19T20:04:47.189Z,74.52
2023-02-19T20:07:13.867Z,74.89
2023-02-19T20:09:40.601Z,75.09
2023-02-19T20:12:08.716Z,74.65
2023-02-19T20:14:35.380Z,75.13
2023-02-19T20:17:02.052Z,75.27
2023-02-19T20:19:28.914Z,75.26
2023-02-19T20:21:55.528Z,74.59
2023-02-19T20:24:26.017Z,75.19
2023-02-19T20:27:00.550Z,75.42
2023-02-19T20:29:29.393Z,75.13
2023-02-19T20:31:59.823Z,75.23
2023-02-19T20:34:27.442Z,74.67
2023-02-19T20:36:54.533Z,74.62
2023-02-19T20:39:22.101Z,75.43
2023-02-19T20:41:53.736Z,74.81
2023-02-19T20:44:20.666Z,75.14
2023-02-19T20:46:49.621Z,74.38
2023-02-19T20:49:18.933Z,75.15
2023-02-19T20:51:51.938Z,74.60
2023-02-19T20:54:23.743Z,74.95
2023-02-19T20:56:53.097Z,75.85
2023-02-19T20:59:22.072Z,74.88
2023-02-19T21:01:49.850Z,75.23
2023-02-19T21:04:18.351Z,74.82
2023-02-19T21:06:45.962Z,74.72
2023-02-19T21:09:12.673Z,75.51
2023-02-19T21:11:39.713Z,74.96
2023-02-19T21:14:06.348Z,75.13
2023-02-19T21:16:34.053Z,74.62
2023-02-19T21:19:00.672Z,74.21
2023-02-19T21:21:27.980Z,73.71
2023-02-19T21:23:57.770Z,74.49
2023-02-19T21:26:25.190Z,74.12
2023-02-19T21:28:52.546Z,73.63
2023-02-19T21:31:25.523Z,73.97
2023-02-19T21:33:52.210Z,74.41
2023-02-19T21:36:18.823Z,74.07
2023-02-19T21:38:45.501Z,74.35
2023-02-19T21:41:12.062Z,74.28
2023-02-19T21:43:38.613Z,73.73
2023-02-19T21:46:05.362Z,74.05
2023-02-19T21:48:31.954Z,74.22
2023-02-19T21:50:58.528Z,74.36
2023-02-19T21:53:25.169Z,73.65
2023-02-19T21:55:58.360Z,73.52
2023-02-19T21:58:26.476Z,73.76
2023-02-19T22:00:54.158Z,73.53
2023-02-19T22:03:21.162Z,73.24
2023-02-19T22:05:48.055Z,73.60
2023-02-19T22:08:17.375Z,73.08
2023-02-19T22:10:44.135Z,73.08
2023-02-19T22:13:14.243Z,73.72
2023-02-19T22:15:40.814Z,73.42
2023-02-19T22:18:07.439Z,73.34
2023-02-19T22:20:35.561Z,73.62
2023-02-19T22:23:02.121Z,74.25
2023-02-19T22:25:28.665Z,73.42
2023-02-19T22:27:55.313Z,72.56
2023-02-19T22:30:21.935Z,73.08
2023-02-19T22:32:51.505Z,73.50
2023-02-19T22:35:21.215Z,73.14
2023-02-19T22:37:50.499Z,73.15
2023-02-19T22:40:20.071Z,72.10
2023-02-19T22:42:50.142Z,72.76
2023-02-19T22:45:19.450Z,72.81
2023-02-19T22:47:47.224Z,72.45
2023-02-19T22:50:21.279Z,72.44
2023-02-19T22:52:54.905Z,72.41
2023-02-19T22:55:22.016Z,72.15
2023-02-19T22:57:48.701Z,73.04
2023-02-19T23:00:24.436Z,71.94
2023-02-19T23:02:51.081Z,71.84
2023-02-19T23:05:17.717Z,71.56
2023-02-19T23:07:45.302Z,72.10
2023-02-19T23:10:13.136Z,72.48
2023-02-19T23:12:41.243Z,72.44
2023-02-19T23:15:12.059Z,72.67
2023-02-19T23:17:41.261Z,72.34
2023-02-19T23:20:08.503Z,72.05
2023-02-19T23:22:42.491Z,72.60
2023-02-19T23:25:09.538Z,72.63
2023-02-19T23:27:39.283Z,72.83
2023-02-19T23:30:06.648Z,72.56
2023-02-19T23:32:35.567Z,72.69
2023-02-19T23:35:02.805Z,72.94
2023-02-19T23:37:29.430Z,72.53
2023-02-19T23:39:56.212Z,72.21
2023-02-19T23:42:22.796Z,73.24
2023-02-19T23:44:49.677Z,72.53
2023-02-19T23:47:21.174Z,72.58
2023-02-19T23:49:47.772Z,73.16
2023-02-19T23:52:14.359Z,73.01
2023-02-19T23:54:41.012Z,72.93
2023-02-19T23:57:07.633Z,73.63
2023-02-19T23:59:39.760Z,72.87
